createdAt,value
2018-08-18T00:00:27.069Z,10.60
2018-08-18T00:02:55.992Z,8.37
2018-08-18T00:05:24.501Z,8.97
2018-08-18T00:07:53.033Z,8.20
2018-08-18T00:10:22.773Z,7.50
2018-08-18T00:12:51.445Z,8.07
2018-08-18T00:15:20.007Z,7.23
2018-08-18T00:17:48.523Z,7.13
2018-08-18T00:20:19.490Z,9.75
2018-08-18T00:22:48.636Z,13.60
2018-08-18T00:25:17.474Z,7.97
2018-08-18T00:27:45.981Z,7.13
2018-08-18T00:31:53.794Z,7.93
2018-08-18T00:34:23.830Z,7.08
2018-08-18T00:36:52.962Z,6.83
2018-08-18T00:39:21.698Z,9.24
2018-08-18T00:41:50.220Z,6.10
2018-08-18T00:44:18.705Z,6.90
2018-08-18T00:46:47.213Z,6.30
2018-08-18T00:49:17.377Z,7.42
2018-08-18T00:51:45.838Z,6.83
2018-08-18T00:59:08.509Z,9.00
2018-08-18T01:01:37.076Z,5.77
2018-08-18T01:04:07.606Z,8.33
2018-08-18T01:06:40.213Z,6.87
2018-08-18T01:09:12.382Z,6.03
2018-08-18T01:11:42.934Z,5.70
2018-08-18T01:14:16.865Z,8.13
2018-08-18T01:16:51.021Z,7.20
2018-08-18T01:19:20.590Z,6.83
2018-08-18T01:21:56.463Z,5.50
2018-08-18T01:24:25.147Z,5.10
2018-08-18T01:26:53.634Z,7.13
2018-08-18T01:29:22.174Z,5.73
2018-08-18T01:31:52.174Z,6.80
2018-08-18T01:34:20.689Z,6.15
2018-08-18T01:36:49.617Z,6.10
2018-08-18T01:39:19.894Z,6.00
2018-08-18T01:41:48.357Z,9.23
2018-08-18T01:44:20.518Z,5.10
2018-08-18T01:46:50.257Z,7.33
2018-08-18T01:49:25.422Z,5.83
2018-08-18T01:51:53.893Z,5.93
2018-08-18T01:54:22.357Z,7.90
2018-08-18T01:56:53.653Z,6.07
2018-08-18T01:59:22.243Z,7.10
2018-08-18T02:01:50.730Z,7.40
2018-08-18T02:04:19.902Z,13.60
2018-08-18T02:06:48.422Z,6.40
2018-08-18T02:09:17.461Z,8.43
2018-08-18T02:11:47.483Z,7.87
2018-08-18T02:14:20.858Z,8.48
2018-08-18T02:16:51.875Z,7.30
2018-08-18T02:19:20.342Z,7.07
2018-08-18T02:21:48.822Z,6.43
2018-08-18T02:24:17.417Z,9.73
2018-08-18T02:26:45.882Z,7.57
2018-08-18T02:34:08.650Z,6.97
2018-08-18T02:36:37.165Z,8.80
2018-08-18T02:39:07.709Z,8.07
2018-08-18T02:41:37.627Z,8.50
2018-08-18T02:44:06.312Z,8.33
2018-08-18T02:46:36.640Z,8.87
2018-08-18T02:49:05.617Z,7.93
2018-08-18T02:51:34.514Z,9.80
2018-08-18T02:54:03.304Z,9.70
2018-08-18T02:56:46.721Z,8.83
2018-08-18T03:04:11.417Z,10.33
2018-08-18T03:06:40.873Z,9.03
2018-08-18T03:09:10.694Z,8.00
2018-08-18T03:11:42.686Z,8.40
2018-08-18T03:14:11.373Z,10.93
2018-08-18T03:16:42.081Z,17.00
2018-08-18T03:19:13.714Z,14.50
2018-08-18T03:21:43.941Z,11.00
2018-08-18T03:24:22.293Z,10.18
2018-08-18T03:26:55.620Z,12.70
2018-08-18T03:29:25.335Z,10.40
2018-08-18T03:31:54.146Z,11.40
2018-08-18T03:34:22.852Z,10.30
2018-08-18T03:36:54.754Z,10.77
2018-08-18T03:39:28.912Z,11.03
2018-08-18T03:42:01.837Z,13.28
2018-08-18T03:44:30.318Z,14.30
2018-08-18T03:46:58.906Z,11.43
2018-08-18T03:49:27.429Z,11.27
2018-08-18T03:51:56.386Z,11.77
2018-08-18T03:54:24.937Z,12.77
2018-08-18T03:56:54.262Z,14.35
2018-08-18T03:59:22.737Z,32.23
2018-08-18T04:02:05.809Z,26.43
2018-08-18T04:04:35.446Z,12.35
2018-08-18T04:07:05.433Z,12.70
2018-08-18T04:09:35.126Z,11.60
2018-08-18T04:12:04.870Z,11.33
2018-08-18T04:14:38.697Z,12.40
2018-08-18T04:17:38.238Z,12.30
2018-08-18T04:20:07.171Z,11.80
2018-08-18T04:22:35.698Z,13.35
2018-08-18T04:25:05.047Z,14.27
2018-08-18T04:27:38.395Z,10.80
2018-08-18T04:30:11.743Z,11.87
2018-08-18T04:32:50.490Z,13.40
2018-08-18T04:35:21.089Z,10.73
2018-08-18T04:37:50.303Z,13.27
2018-08-18T04:40:19.004Z,12.23
2018-08-18T04:42:47.602Z,10.32
2018-08-18T04:45:19.849Z,12.85
2018-08-18T04:47:48.374Z,9.97
2018-08-18T04:50:17.444Z,16.63
2018-08-18T04:52:45.954Z,11.90
2018-08-18T05:00:13.734Z,12.90
2018-08-18T05:02:59.613Z,21.00
2018-08-18T05:05:29.490Z,12.13
2018-08-18T05:07:59.439Z,13.00
2018-08-18T05:10:29.065Z,12.13
2018-08-18T05:12:57.594Z,28.23
2018-08-18T05:15:26.090Z,17.30
2018-08-18T05:17:54.581Z,11.57
2018-08-18T05:20:26.889Z,15.13
2018-08-18T05:22:57.596Z,14.73
2018-08-18T05:25:33.082Z,16.83
2018-08-18T05:28:02.021Z,14.30
2018-08-18T05:30:30.519Z,14.38
2018-08-18T05:32:59.071Z,13.20
2018-08-18T05:35:27.541Z,13.17
2018-08-18T05:37:56.016Z,17.00
2018-08-18T05:40:25.029Z,17.50
2018-08-18T05:42:53.666Z,22.53
2018-08-18T05:45:25.082Z,18.57
2018-08-18T05:47:54.170Z,15.67
2018-08-18T05:50:24.310Z,16.40
2018-08-18T05:52:57.389Z,18.00
2018-08-18T05:55:26.262Z,17.10
2018-08-18T05:57:54.738Z,15.53
2018-08-18T06:00:25.115Z,19.23
2018-08-18T06:02:58.547Z,17.20
2018-08-18T06:05:29.098Z,18.50
2018-08-18T06:07:58.116Z,15.93
2018-08-18T06:10:27.108Z,16.67
2018-08-18T06:12:55.930Z,16.20
2018-08-18T06:15:24.943Z,14.80
2018-08-18T06:17:53.539Z,16.20
2018-08-18T06:20:22.634Z,17.03
2018-08-18T06:22:51.130Z,16.10
2018-08-18T06:25:19.634Z,15.23
2018-08-18T06:27:48.274Z,13.33
2018-08-18T06:30:17.520Z,15.95
2018-08-18T06:32:46.065Z,14.13
2018-08-18T06:40:16.535Z,10.90
2018-08-18T06:42:46.609Z,9.97
2018-08-18T06:50:13.006Z,9.40
2018-08-18T06:52:44.755Z,8.93
2018-08-18T06:55:15.100Z,10.20
2018-08-18T06:57:48.582Z,8.40
2018-08-18T07:00:19.860Z,9.00
2018-08-18T07:02:48.442Z,8.07
2018-08-18T07:05:18.536Z,7.30
2018-08-18T07:07:47.813Z,8.37
2018-08-18T07:15:32.218Z,9.13
2018-08-18T07:18:00.793Z,9.43
2018-08-18T07:20:29.425Z,9.87
2018-08-18T07:22:57.962Z,9.43
2018-08-18T07:25:26.435Z,9.53
2018-08-18T07:28:00.565Z,12.17
2018-08-18T07:30:29.857Z,15.47
2018-08-18T07:32:58.617Z,13.83
2018-08-18T07:35:27.769Z,12.73
2018-08-18T07:37:56.262Z,13.57
2018-08-18T07:40:31.977Z,19.70
2018-08-18T07:43:05.665Z,17.40
2018-08-18T07:45:36.327Z,11.40
2018-08-18T07:48:05.680Z,12.30
2018-08-18T07:50:35.399Z,13.30
2018-08-18T07:53:04.830Z,12.80
2018-08-18T07:55:33.375Z,12.47
2018-08-18T07:58:03.403Z,11.70
2018-08-18T08:00:33.360Z,16.55
2018-08-18T08:03:02.255Z,11.00
2018-08-18T08:05:31.716Z,13.90
2018-08-18T08:08:00.418Z,8.57
2018-08-18T08:10:30.069Z,8.57
2018-08-18T08:12:58.730Z,7.80
2018-08-18T08:15:28.020Z,7.10
2018-08-18T08:17:56.698Z,7.28
2018-08-18T08:20:26.365Z,7.33
2018-08-18T08:22:55.642Z,8.57
2018-08-18T08:25:24.199Z,12.10
2018-08-18T08:27:53.653Z,8.67
2018-08-18T08:30:23.674Z,7.73
2018-08-18T08:32:52.243Z,9.97
2018-08-18T08:35:20.838Z,7.00
2018-08-18T08:37:51.896Z,6.83
2018-08-18T08:40:21.424Z,39.20
2018-08-18T08:42:49.983Z,6.60
2018-08-18T08:45:20.202Z,6.80
2018-08-18T08:47:49.284Z,16.67
2018-08-18T08:50:19.942Z,6.20
2018-08-18T08:52:50.630Z,6.90
2018-08-18T08:55:20.255Z,5.77
2018-08-18T08:57:48.778Z,6.90
2018-08-18T09:00:18.041Z,6.42
2018-08-18T09:02:46.566Z,7.63
2018-08-18T09:10:12.833Z,6.57
2018-08-18T09:12:41.749Z,6.20
2018-08-18T09:15:11.459Z,4.67
2018-08-18T09:17:41.115Z,4.53
2018-08-18T09:20:12.951Z,5.03
2018-08-18T09:23:00.664Z,19.47
2018-08-18T09:25:30.841Z,4.97
2018-08-18T09:28:00.843Z,7.30
2018-08-18T09:30:30.613Z,4.97
2018-08-18T09:33:00.655Z,6.10
2018-08-18T09:35:29.209Z,7.10
2018-08-18T09:37:59.813Z,5.70
2018-08-18T09:40:29.878Z,5.85
2018-08-18T09:42:58.362Z,6.23
2018-08-18T09:45:27.063Z,26.87
2018-08-18T09:47:55.499Z,6.05
2018-08-18T09:50:24.087Z,5.53
2018-08-18T09:52:52.632Z,6.00
2018-08-18T09:55:21.182Z,6.53
2018-08-18T09:57:49.662Z,6.80
2018-08-18T10:00:18.319Z,5.80
2018-08-18T10:02:46.858Z,11.53
2018-08-18T10:10:13.434Z,7.20
2018-08-18T10:12:42.052Z,6.57
2018-08-18T10:15:10.654Z,6.83
2018-08-18T10:17:39.869Z,5.83
2018-08-18T10:20:08.478Z,5.77
2018-08-18T10:22:37.037Z,5.40
2018-08-18T10:25:06.406Z,5.90
2018-08-18T10:27:34.907Z,4.97
2018-08-18T10:30:03.523Z,6.93
2018-08-18T10:32:32.726Z,6.50
2018-08-18T10:35:01.247Z,5.90
2018-08-18T10:37:29.779Z,5.93
2018-08-18T10:40:07.958Z,5.23
2018-08-18T10:42:36.440Z,5.37
2018-08-18T10:45:06.190Z,5.20
2018-08-18T10:47:34.811Z,6.33
2018-08-18T10:51:15.538Z,6.17
2018-08-18T10:53:44.030Z,5.93
2018-08-18T10:56:13.372Z,7.37
2018-08-18T10:58:53.078Z,7.67
2018-08-18T11:01:21.606Z,7.17
2018-08-18T11:03:50.101Z,8.00
2018-08-18T11:06:20.102Z,11.70
2018-08-18T11:08:48.573Z,7.57
2018-08-18T11:11:18.615Z,10.40
2018-08-18T11:13:47.631Z,10.60
2018-08-18T11:16:16.890Z,7.47
2018-08-18T11:18:46.082Z,8.47
2018-08-18T11:26:10.665Z,7.97
2018-08-18T11:28:39.240Z,8.60
2018-08-18T11:31:07.819Z,10.50
2018-08-18T11:33:41.748Z,8.00
2018-08-18T11:36:11.107Z,9.90
2018-08-18T11:38:39.689Z,8.40
2018-08-18T11:41:09.117Z,12.53
2018-08-18T11:43:48.955Z,10.20
2018-08-18T11:46:17.951Z,7.83
2018-08-18T11:48:46.398Z,8.65
2018-08-18T11:56:16.016Z,8.37
2018-08-18T11:58:49.006Z,8.10
2018-08-18T12:01:22.254Z,10.10
2018-08-18T12:03:51.044Z,11.30
2018-08-18T12:06:19.552Z,8.28
2018-08-18T12:08:48.065Z,8.10
2018-08-18T12:11:17.514Z,8.63
2018-08-18T12:13:46.004Z,16.00
2018-08-18T12:21:07.874Z,8.77
2018-08-18T12:23:37.374Z,9.00
2018-08-18T12:26:10.770Z,7.70
2018-08-18T12:28:45.160Z,8.40
2018-08-18T12:31:54.286Z,8.67
2018-08-18T12:34:22.770Z,9.17
2018-08-18T12:36:51.317Z,9.73
2018-08-18T12:39:19.827Z,9.00
2018-08-18T12:41:48.338Z,9.57
2018-08-18T12:44:22.752Z,9.07
2018-08-18T12:46:51.254Z,8.80
2018-08-18T12:49:19.730Z,8.40
2018-08-18T12:51:48.281Z,8.93
2018-08-18T12:54:17.461Z,10.20
2018-08-18T12:56:45.926Z,9.63
2018-08-18T13:04:12.095Z,7.43
2018-08-18T13:06:43.163Z,7.93
2018-08-18T13:09:13.450Z,8.50
2018-08-18T13:11:42.867Z,7.30
2018-08-18T13:14:11.873Z,7.10
2018-08-18T13:16:40.738Z,7.57
2018-08-18T13:19:09.230Z,13.33
2018-08-18T13:21:37.730Z,8.60
2018-08-18T13:24:06.843Z,6.10
2018-08-18T13:26:35.428Z,7.63
2018-08-18T13:29:03.991Z,6.40
2018-08-18T13:31:39.363Z,8.53
2018-08-18T13:34:09.823Z,7.00
2018-08-18T13:36:39.598Z,6.40
2018-08-18T13:39:11.841Z,8.57
2018-08-18T13:41:40.622Z,8.63
2018-08-18T13:44:09.134Z,8.53
2018-08-18T13:46:47.790Z,7.20
2018-08-18T13:49:20.742Z,6.45
2018-08-18T13:51:49.307Z,7.93
2018-08-18T13:54:17.900Z,8.43
2018-08-18T13:56:46.486Z,10.50
2018-08-18T13:59:41.307Z,7.83
2018-08-18T14:02:10.177Z,9.20
2018-08-18T14:04:41.562Z,7.23
2018-08-18T14:07:10.383Z,6.97
2018-08-18T14:09:44.090Z,6.33
2018-08-18T14:12:16.912Z,9.23
2018-08-18T14:14:46.332Z,6.97
2018-08-18T14:22:21.063Z,11.73
2018-08-18T14:24:49.678Z,9.57
2018-08-18T14:27:20.511Z,7.07
2018-08-18T14:29:49.119Z,8.30
2018-08-18T14:32:22.970Z,7.47
2018-08-18T14:34:56.827Z,7.22
2018-08-18T14:37:25.578Z,12.77
2018-08-18T14:39:54.912Z,7.80
2018-08-18T14:42:26.614Z,6.80
2018-08-18T14:44:59.566Z,7.73
2018-08-18T14:47:28.137Z,6.80
2018-08-18T14:50:14.097Z,14.70
2018-08-18T14:52:44.397Z,7.67
2018-08-18T14:55:12.973Z,7.80
2018-08-18T14:57:51.792Z,13.03
2018-08-18T15:00:20.959Z,6.77
2018-08-18T15:02:49.505Z,9.00
2018-08-18T15:05:18.363Z,6.20
2018-08-18T15:07:50.903Z,7.00
2018-08-18T15:10:31.311Z,7.03
2018-08-18T15:13:00.304Z,5.37
2018-08-18T15:15:29.618Z,9.15
2018-08-18T15:18:02.072Z,7.40
2018-08-18T15:20:33.631Z,5.80
2018-08-18T15:23:03.042Z,6.10
2018-08-18T15:25:32.499Z,6.47
2018-08-18T15:28:05.899Z,9.70
2018-08-18T15:30:35.607Z,6.45
2018-08-18T15:33:04.855Z,11.50
2018-08-18T15:35:35.978Z,6.10
2018-08-18T15:38:05.149Z,6.37
2018-08-18T15:40:33.659Z,7.50
2018-08-18T15:43:02.542Z,6.67
2018-08-18T15:45:31.409Z,5.97
2018-08-18T15:47:59.950Z,7.47
2018-08-18T15:50:29.151Z,9.97
2018-08-18T15:52:57.672Z,8.20
2018-08-18T15:55:26.437Z,17.33
2018-08-18T15:57:55.461Z,9.50
2018-08-18T16:00:32.215Z,6.50
2018-08-18T16:03:01.130Z,6.87
2018-08-18T16:05:30.620Z,8.37
2018-08-18T16:07:59.168Z,7.60
2018-08-18T16:10:27.733Z,8.40
2018-08-18T16:12:56.242Z,8.77
2018-08-18T16:15:25.368Z,10.47
2018-08-18T16:17:54.422Z,6.53
2018-08-18T16:20:24.557Z,7.50
2018-08-18T16:22:54.630Z,12.17
2018-08-18T16:25:31.599Z,7.10
2018-08-18T16:28:00.138Z,8.33
2018-08-18T16:30:28.662Z,13.73
2018-08-18T16:33:11.982Z,6.40
2018-08-18T16:35:41.815Z,9.45
2018-08-18T16:38:10.842Z,7.57
2018-08-18T16:40:39.831Z,6.90
2018-08-18T16:43:09.879Z,7.30
2018-08-18T16:45:38.531Z,9.90
2018-08-18T16:48:08.321Z,8.40
2018-08-18T16:50:37.801Z,7.40
2018-08-18T16:53:07.493Z,8.10
2018-08-18T16:55:38.353Z,7.20
2018-08-18T16:58:08.483Z,7.53
2018-08-18T17:01:09.268Z,9.70
2018-08-18T17:03:37.789Z,6.93
2018-08-18T17:06:06.789Z,7.27
2018-08-18T17:08:36.134Z,6.83
2018-08-18T17:11:06.115Z,8.93
2018-08-18T17:13:35.858Z,9.80
2018-08-18T17:16:08.759Z,7.27
2018-08-18T17:18:37.226Z,9.90
2018-08-18T17:21:07.330Z,7.03
2018-08-18T17:23:37.667Z,6.70
2018-08-18T17:26:07.017Z,8.87
2018-08-18T17:28:35.589Z,10.40
2018-08-18T17:31:05.183Z,10.83
2018-08-18T17:33:34.064Z,6.90
2018-08-18T17:36:03.306Z,6.83
2018-08-18T17:38:31.840Z,6.85
2018-08-18T17:41:00.422Z,7.17
2018-08-18T17:43:30.019Z,7.70
2018-08-18T17:45:59.846Z,6.25
2018-08-18T17:48:29.458Z,7.20
2018-08-18T17:50:58.038Z,7.20
2018-08-18T17:53:26.519Z,7.80
2018-08-18T17:56:00.918Z,8.33
2018-08-18T17:58:29.401Z,9.77
2018-08-18T18:00:57.933Z,7.50
2018-08-18T18:03:26.434Z,9.50
2018-08-18T18:05:56.226Z,7.53
2018-08-18T18:08:24.833Z,7.30
2018-08-18T18:10:53.519Z,7.43
2018-08-18T18:13:25.979Z,7.80
2018-08-18T18:15:56.657Z,7.15
2018-08-18T18:18:31.202Z,10.30
2018-08-18T18:20:59.758Z,8.43
2018-08-18T18:23:28.575Z,10.43
2018-08-18T18:25:57.214Z,15.13
2018-08-18T18:28:32.422Z,18.37
2018-08-18T18:31:01.015Z,10.37
2018-08-18T18:33:29.571Z,14.30
2018-08-18T18:35:59.096Z,22.47
2018-08-18T18:38:27.586Z,10.73
2018-08-18T18:40:56.074Z,13.20
2018-08-18T18:43:24.691Z,13.50
2018-08-18T18:45:53.279Z,12.23
2018-08-18T18:48:21.738Z,13.70
2018-08-18T18:50:51.253Z,11.40
2018-08-18T18:53:19.776Z,11.13
2018-08-18T18:55:55.269Z,14.37
2018-08-18T18:58:23.764Z,12.37
2018-08-18T19:01:00.422Z,13.63
2018-08-18T19:03:29.738Z,14.73
2018-08-18T19:05:58.414Z,16.20
2018-08-18T19:08:27.065Z,11.13
2018-08-18T19:10:55.614Z,14.67
2018-08-18T19:13:26.048Z,22.97
2018-08-18T19:15:55.258Z,16.73
2018-08-18T19:18:23.778Z,19.00
2018-08-18T19:20:52.258Z,18.03
2018-08-18T19:23:21.962Z,25.88
2018-08-18T19:25:51.829Z,19.10
2018-08-18T19:28:21.629Z,18.63
2018-08-18T19:30:50.187Z,19.90
2018-08-18T19:33:19.121Z,14.40
2018-08-18T19:35:48.927Z,19.70
2018-08-18T19:38:20.391Z,20.00
2018-08-18T19:40:51.090Z,16.70
2018-08-18T19:43:20.697Z,16.07
2018-08-18T19:45:49.558Z,16.10
2018-08-18T19:48:19.723Z,16.00
2018-08-18T19:50:56.737Z,16.50
2018-08-18T19:53:27.537Z,20.37
2018-08-18T19:55:57.623Z,22.10
2018-08-18T19:58:26.860Z,24.17
2018-08-18T20:00:55.349Z,19.97
2018-08-18T20:03:24.346Z,19.53
2018-08-18T20:05:56.328Z,18.17
2018-08-18T20:08:26.258Z,19.20
2018-08-18T20:10:55.620Z,19.40
2018-08-18T20:13:25.410Z,21.20
2018-08-18T20:15:55.981Z,25.07
2018-08-18T20:18:24.503Z,17.35
2018-08-18T20:20:53.091Z,16.27
2018-08-18T20:23:22.053Z,15.40
2018-08-18T20:25:51.414Z,16.40
2018-08-18T20:28:20.789Z,18.77
2018-08-18T20:30:49.783Z,16.50
2018-08-18T20:33:18.279Z,16.97
2018-08-18T20:35:46.766Z,17.40
2018-08-18T20:43:15.906Z,21.33
2018-08-18T20:45:47.478Z,19.92
2018-08-18T20:48:20.327Z,21.57
2018-08-18T20:50:48.938Z,20.73
2018-08-18T20:53:19.137Z,20.52
2018-08-18T20:55:59.422Z,21.53
2018-08-18T20:58:28.264Z,20.43
2018-08-18T21:00:56.775Z,19.73
2018-08-18T21:03:36.601Z,20.80
2018-08-18T21:06:06.724Z,19.50
2018-08-18T21:08:36.978Z,20.53
2018-08-18T21:11:05.781Z,22.23
2018-08-18T21:13:34.483Z,24.23
2018-08-18T21:16:04.865Z,19.40
2018-08-18T21:18:34.024Z,21.10
2018-08-18T21:21:07.413Z,20.85
2018-08-18T21:23:36.146Z,18.33
2018-08-18T21:26:05.103Z,21.73
2018-08-18T21:28:33.690Z,20.82
2018-08-18T21:31:05.005Z,20.93
2018-08-18T21:33:33.486Z,20.45
2018-08-18T21:36:02.107Z,30.10
2018-08-18T21:38:30.686Z,21.27
2018-08-18T21:40:59.172Z,21.40
2018-08-18T21:43:32.909Z,22.30
2018-08-18T21:46:01.394Z,22.80
2018-08-18T21:48:41.550Z,22.17
2018-08-18T21:51:10.062Z,24.53
2018-08-18T21:53:38.546Z,22.53
2018-08-18T21:56:08.416Z,21.80
2018-08-18T21:58:36.894Z,22.30
2018-08-18T22:01:11.422Z,21.97
2018-08-18T22:03:40.003Z,22.63
2018-08-18T22:06:08.518Z,22.25
2018-08-18T22:08:37.059Z,23.23
2018-08-18T22:11:06.316Z,22.90
2018-08-18T22:13:44.251Z,25.27
2018-08-18T22:16:12.718Z,23.00
2018-08-18T22:18:50.282Z,20.87
2018-08-18T22:21:23.010Z,25.73
2018-08-18T22:23:51.512Z,32.95
2018-08-18T22:26:21.454Z,23.00
2018-08-18T22:29:05.073Z,23.17
2018-08-18T22:31:35.305Z,24.55
2018-08-18T22:34:05.062Z,22.87
2018-08-18T22:36:35.750Z,22.90
2018-08-18T22:39:06.742Z,22.23
2018-08-18T22:41:35.895Z,22.07
2018-08-18T22:44:04.623Z,23.45
2018-08-18T22:46:33.594Z,26.43
2018-08-18T22:49:02.049Z,24.43
2018-08-18T22:51:30.625Z,27.82
2018-08-18T22:53:59.205Z,24.03
2018-08-18T22:56:34.935Z,21.50
2018-08-18T22:59:05.142Z,27.90
2018-08-18T23:01:34.969Z,22.77
2018-08-18T23:04:04.702Z,23.90
2018-08-18T23:06:35.325Z,23.37
2018-08-18T23:09:05.797Z,23.17
2018-08-18T23:11:34.311Z,24.12
2018-08-18T23:14:02.814Z,24.27
2018-08-18T23:16:31.631Z,26.07
2018-08-18T23:19:00.657Z,26.17
2018-08-18T23:21:30.310Z,26.83
2018-08-18T23:24:00.510Z,26.50
2018-08-18T23:26:29.579Z,27.33
2018-08-18T23:28:58.078Z,23.00
2018-08-18T23:31:26.595Z,28.67
2018-08-18T23:33:55.798Z,24.93
2018-08-18T23:36:24.305Z,27.93
2018-08-18T23:38:58.249Z,25.07
2018-08-18T23:41:26.766Z,26.30
2018-08-18T23:43:55.258Z,26.33
2018-08-18T23:46:23.810Z,27.27
2018-08-18T23:48:52.298Z,25.20
2018-08-18T23:51:25.928Z,24.87
2018-08-18T23:53:54.397Z,24.87
2018-08-18T23:56:22.922Z,24.47
2018-08-18T23:58:52.144Z,25.43
